createdAt,value
2023-04-11T00:03:33.010Z,1.90
2023-04-11T00:08:34.647Z,2.15
2023-04-11T00:13:37.312Z,2.42
2023-04-11T00:18:39.371Z,2.40
2023-04-11T00:23:41.077Z,1.88
2023-04-11T00:28:42.619Z,2.40
2023-04-11T00:33:44.603Z,2.55
2023-04-11T00:38:46.371Z,3.38
2023-04-11T00:43:49.713Z,2.70
2023-04-11T00:48:51.671Z,3.45
2023-04-11T00:53:54.583Z,3.70
2023-04-11T00:58:57.064Z,4.03
2023-04-11T01:04:01.128Z,3.55
2023-04-11T01:09:04.966Z,3.80
2023-04-11T01:14:06.712Z,1.85
2023-04-11T01:19:08.279Z,0.95
2023-04-11T01:24:09.848Z,1.10
2023-04-11T01:29:11.443Z,1.02
2023-04-11T01:34:14.961Z,0.90
2023-04-11T01:39:16.564Z,1.42
2023-04-11T01:44:19.352Z,1.17
2023-04-11T01:49:21.590Z,1.25
2023-04-11T01:54:23.152Z,0.95
2023-04-11T01:59:24.656Z,0.75
2023-04-11T02:04:26.294Z,1.00
2023-04-11T02:09:27.809Z,0.75
2023-04-11T02:14:40.560Z,0.85
2023-04-11T02:19:42.161Z,1.27
2023-04-11T02:24:43.740Z,0.90
2023-04-11T02:29:45.376Z,1.00
2023-04-11T02:34:46.932Z,1.00
2023-04-11T02:39:48.445Z,1.10
2023-04-11T02:44:49.967Z,1.05
2023-04-11T02:49:53.848Z,0.80
2023-04-11T02:55:01.152Z,1.90
2023-04-11T03:00:07.017Z,1.20
2023-04-11T03:05:17.873Z,2.78
2023-04-11T03:10:23.179Z,1.40
2023-04-11T03:15:25.228Z,1.15
2023-04-11T03:20:26.805Z,1.65
2023-04-11T03:25:28.872Z,2.03
2023-04-11T03:30:30.527Z,1.15
2023-04-11T03:35:32.355Z,2.20
2023-04-11T03:40:35.007Z,1.25
2023-04-11T03:45:53.345Z,2.30
2023-04-11T03:51:07.995Z,2.38
2023-04-11T03:56:38.797Z,6.82
2023-04-11T04:01:43.230Z,3.17
2023-04-11T04:06:45.989Z,3.15
2023-04-11T04:11:48.223Z,1.90
2023-04-11T04:16:52.201Z,2.20
2023-04-11T04:21:58.082Z,3.15
2023-04-11T04:27:03.764Z,2.83
2023-04-11T04:32:21.026Z,4.55
2023-04-11T04:37:25.040Z,3.08
2023-04-11T04:42:36.404Z,1.73
2023-04-11T04:47:40.254Z,2.10
2023-04-11T04:52:42.330Z,1.85
2023-04-11T04:57:44.332Z,1.98
2023-04-11T05:02:47.837Z,1.60
2023-04-11T05:07:50.172Z,1.00
2023-04-11T05:12:53.500Z,0.80
2023-04-11T05:17:55.292Z,0.90
2023-04-11T05:22:56.917Z,0.80
2023-04-11T05:27:58.563Z,0.70
2023-04-11T05:33:01.899Z,0.60
2023-04-11T05:38:03.651Z,0.68
2023-04-11T05:43:05.522Z,0.80
2023-04-11T05:48:10.841Z,0.80
2023-04-11T05:53:13.080Z,0.80
2023-04-11T05:58:15.013Z,1.15
2023-04-11T06:03:17.642Z,0.80
2023-04-11T06:08:21.483Z,0.60
2023-04-11T06:13:23.342Z,2.00
2023-04-11T06:18:24.910Z,0.90
2023-04-11T06:23:26.451Z,0.60
2023-04-11T06:28:28.086Z,0.90
2023-04-11T06:33:29.587Z,0.82
2023-04-11T06:38:31.087Z,0.65
2023-04-11T06:43:32.574Z,0.82
2023-04-11T06:48:34.442Z,1.00
2023-04-11T06:53:36.803Z,1.17
2023-04-11T06:58:38.489Z,0.90
2023-04-11T07:03:40.547Z,1.42
2023-04-11T07:08:43.696Z,1.42
2023-04-11T07:13:45.247Z,0.95
2023-04-11T07:18:50.996Z,1.35
2023-04-11T07:23:53.362Z,0.85
2023-04-11T07:28:55.098Z,0.90
2023-04-11T07:33:57.039Z,0.93
2023-04-11T07:38:59.881Z,0.90
2023-04-11T07:44:01.545Z,0.93
2023-04-11T07:49:03.204Z,1.00
2023-04-11T07:54:04.776Z,1.15
2023-04-11T07:59:06.496Z,0.88
2023-04-11T08:04:08.189Z,1.10
2023-04-11T08:09:10.919Z,1.10
2023-04-11T08:14:14.786Z,1.08
2023-04-11T08:19:17.120Z,1.63
2023-04-11T08:24:18.916Z,0.98
2023-04-11T08:29:20.457Z,1.25
2023-04-11T08:34:22.022Z,1.50
2023-04-11T08:39:23.536Z,1.23
2023-04-11T08:44:25.199Z,1.00
2023-04-11T08:49:26.685Z,1.00
2023-04-11T08:54:28.178Z,1.20
2023-04-11T08:59:33.928Z,1.20
2023-04-11T09:04:43.058Z,1.05
2023-04-11T09:09:45.426Z,1.17
2023-04-11T09:14:46.959Z,0.80
2023-04-11T09:19:49.514Z,2.20
2023-04-11T09:25:02.639Z,1.17
2023-04-11T09:30:05.878Z,2.00
2023-04-11T09:35:11.349Z,1.00
2023-04-11T09:40:14.925Z,0.85
2023-04-11T09:45:21.121Z,0.98
2023-04-11T09:50:23.962Z,1.08
2023-04-11T09:55:26.136Z,1.40
2023-04-11T10:00:32.474Z,2.00
2023-04-11T10:05:34.159Z,1.30
2023-04-11T10:10:36.097Z,0.95
2023-04-11T10:15:37.725Z,0.88
2023-04-11T10:20:48.176Z,0.90
2023-04-11T10:25:55.444Z,1.05
2023-04-11T10:31:13.032Z,1.00
2023-04-11T10:36:14.667Z,0.95
2023-04-11T10:41:28.605Z,0.95
2023-04-11T10:46:30.301Z,0.85
2023-04-11T10:51:33.807Z,1.10
2023-04-11T10:56:45.494Z,1.23
2023-04-11T11:01:54.877Z,1.30
2023-04-11T11:06:57.915Z,1.38
2023-04-11T11:12:05.605Z,1.00
2023-04-11T11:17:07.949Z,1.40
2023-04-11T11:22:25.583Z,1.10
2023-04-11T11:27:33.107Z,1.20
2023-04-11T11:32:38.997Z,1.02
2023-04-11T11:37:40.807Z,0.93
2023-04-11T11:42:42.457Z,1.10
2023-04-11T11:47:45.694Z,1.33
2023-04-11T11:52:48.777Z,1.45
2023-04-11T11:57:50.851Z,1.40
2023-04-11T12:02:54.205Z,1.17
2023-04-11T12:07:58.588Z,1.13
2023-04-11T12:13:00.290Z,1.13
2023-04-11T12:18:05.621Z,1.05
2023-04-11T12:23:07.202Z,0.90
2023-04-11T12:28:09.814Z,0.80
2023-04-11T12:33:14.954Z,1.02
2023-04-11T12:38:17.956Z,1.05
2023-04-11T12:43:19.906Z,0.93
2023-04-11T12:48:21.519Z,1.10
2023-04-11T12:53:23.495Z,1.00
2023-04-11T12:58:26.396Z,0.90
2023-04-11T13:03:29.161Z,1.58
2023-04-11T13:08:30.997Z,1.10
2023-04-11T13:20:44.887Z,1.00
2023-04-11T13:25:46.356Z,0.88
2023-04-11T13:30:47.857Z,0.80
2023-04-11T13:35:53.149Z,1.30
2023-04-11T13:40:55.544Z,0.73
2023-04-11T13:46:05.198Z,0.80
2023-04-11T13:56:08.755Z,1.10
2023-04-11T14:01:10.726Z,1.20
2023-04-11T14:06:12.457Z,1.00
2023-04-11T14:11:14.453Z,1.00
2023-04-11T14:16:16.446Z,0.75
2023-04-11T14:22:20.195Z,0.90
2023-04-11T14:27:21.898Z,0.80
2023-04-11T14:32:23.419Z,0.90
2023-04-11T14:37:24.899Z,1.08
2023-04-11T14:42:26.588Z,0.82
2023-04-11T14:47:28.682Z,1.35
2023-04-11T14:52:30.249Z,0.70
2023-04-11T14:57:46.975Z,0.65
2023-04-11T15:02:53.779Z,0.70
2023-04-11T15:07:55.647Z,1.27
2023-04-11T15:12:57.132Z,0.73
2023-04-11T15:18:18.430Z,0.75
2023-04-11T15:23:20.702Z,1.08
2023-04-11T15:28:23.568Z,0.95
2023-04-11T15:33:25.943Z,1.08
2023-04-11T15:38:28.610Z,0.90
2023-04-11T15:43:32.048Z,1.17
2023-04-11T15:48:33.512Z,0.80
2023-04-11T15:53:35.238Z,0.88
2023-04-11T15:58:36.754Z,1.00
2023-04-11T16:03:38.395Z,0.63
2023-04-11T16:08:40.063Z,0.95
2023-04-11T16:13:44.003Z,0.80
2023-04-11T16:18:45.603Z,1.00
2023-04-11T16:23:47.114Z,0.93
2023-04-11T16:28:48.980Z,0.80
2023-04-11T16:33:52.230Z,0.90
2023-04-11T16:38:53.773Z,1.02
2023-04-11T16:43:55.982Z,0.98
2023-04-11T16:48:59.310Z,0.80
2023-04-11T16:54:02.256Z,0.57
2023-04-11T16:59:05.104Z,1.10
2023-04-11T17:04:06.989Z,0.70
2023-04-11T17:09:08.911Z,1.00
2023-04-11T17:14:10.439Z,1.08
2023-04-11T17:19:12.097Z,0.80
2023-04-11T17:24:13.603Z,1.70
2023-04-11T17:29:15.555Z,0.98
2023-04-11T17:34:17.004Z,0.85
2023-04-11T17:39:18.666Z,1.55
2023-04-11T17:44:20.730Z,1.20
2023-04-11T17:49:22.214Z,0.70
2023-04-11T17:54:23.770Z,0.80
2023-04-11T17:59:25.361Z,0.60
2023-04-11T18:04:26.968Z,1.10
2023-04-11T18:09:31.786Z,0.90
2023-04-11T18:14:34.160Z,0.90
2023-04-11T18:19:36.151Z,1.00
2023-04-11T18:24:38.093Z,0.95
2023-04-11T18:29:39.559Z,1.17
2023-04-11T18:34:41.137Z,1.20
2023-04-11T18:39:42.646Z,1.60
2023-04-11T18:44:44.199Z,1.73
2023-04-11T18:49:45.850Z,2.13
2023-04-11T18:54:47.318Z,1.88
2023-04-11T18:59:50.532Z,2.88
2023-04-11T19:04:55.440Z,3.30
2023-04-11T19:09:57.198Z,4.22
2023-04-11T19:14:58.798Z,6.00
2023-04-11T19:20:02.112Z,2.80
2023-04-11T19:25:03.789Z,2.15
2023-04-11T19:30:06.412Z,5.75
2023-04-11T19:35:10.457Z,5.90
2023-04-11T19:40:15.177Z,6.72
2023-04-11T19:45:16.745Z,6.28
2023-04-11T19:50:18.506Z,3.58
2023-04-11T19:55:20.069Z,4.57
2023-04-11T20:00:21.552Z,3.88
2023-04-11T20:05:23.798Z,3.90
2023-04-11T20:10:28.387Z,3.55
2023-04-11T20:15:30.939Z,3.20
2023-04-11T20:20:33.669Z,2.00
2023-04-11T20:25:35.493Z,2.30
2023-04-11T20:30:40.122Z,1.83
2023-04-11T20:35:41.605Z,1.35
2023-04-11T20:40:43.152Z,1.48
2023-04-11T20:45:47.682Z,1.95
2023-04-11T20:50:49.280Z,2.00
2023-04-11T20:55:50.846Z,1.90
2023-04-11T21:00:53.545Z,1.83
2023-04-11T21:05:55.069Z,2.78
2023-04-11T21:10:56.521Z,1.65
2023-04-11T21:15:58.493Z,1.95
2023-04-11T21:21:00.074Z,1.83
2023-04-11T21:26:01.578Z,1.60
2023-04-11T21:31:03.125Z,1.20
2023-04-11T21:36:05.034Z,1.25
2023-04-11T21:41:06.967Z,1.10
2023-04-11T21:46:08.504Z,1.20
2023-04-11T21:51:10.439Z,1.38
2023-04-11T21:56:11.962Z,1.02
2023-04-11T22:01:15.067Z,1.15
2023-04-11T22:06:19.336Z,1.20
2023-04-11T22:11:20.799Z,0.82
2023-04-11T22:16:26.316Z,1.05
2023-04-11T22:21:28.411Z,1.05
2023-04-11T22:26:33.971Z,1.05
2023-04-11T22:31:38.273Z,1.08
2023-04-11T22:36:40.089Z,0.68
2023-04-11T22:41:41.580Z,0.77
2023-04-11T22:46:57.145Z,1.10
2023-04-11T22:52:02.127Z,1.08
2023-04-11T22:57:03.668Z,0.80
2023-04-11T23:02:05.653Z,1.55
2023-04-11T23:07:07.168Z,1.17
2023-04-11T23:12:08.967Z,1.60
2023-04-11T23:17:10.516Z,1.13
2023-04-11T23:22:12.428Z,0.85
2023-04-11T23:27:14.056Z,1.10
2023-04-11T23:32:15.641Z,1.55
2023-04-11T23:37:17.845Z,1.00
2023-04-11T23:42:19.286Z,1.08
2023-04-11T23:47:20.861Z,1.58
2023-04-11T23:52:22.421Z,1.10
2023-04-11T23:57:24.787Z,1.20
